createdAt,value
2018-10-15T00:00:23.628Z,100777.67
2018-10-15T00:02:53.221Z,100783.80
2018-10-15T00:05:22.762Z,100786.86
2018-10-15T00:07:52.445Z,100784.23
2018-10-15T00:10:22.179Z,100780.76
2018-10-15T00:12:51.849Z,100774.62
2018-10-15T00:15:29.639Z,100779.44
2018-10-15T00:17:59.339Z,100776.81
2018-10-15T00:20:28.765Z,100778.12
2018-10-15T00:22:58.208Z,100778.14
2018-10-15T00:25:27.585Z,100769.83
2018-10-15T00:27:56.992Z,100773.76
2018-10-15T00:30:26.429Z,100781.62
2018-10-15T00:32:55.802Z,100787.73
2018-10-15T00:35:25.284Z,100788.20
2018-10-15T00:37:54.793Z,100792.56
2018-10-15T00:40:24.166Z,100794.31
2018-10-15T00:42:53.542Z,100790.81
2018-10-15T00:45:23.060Z,100792.13
2018-10-15T00:47:52.494Z,100792.98
2018-10-15T00:50:21.887Z,100792.10
2018-10-15T00:52:51.329Z,100795.17
2018-10-15T00:55:20.722Z,100796.48
2018-10-15T00:57:50.104Z,100793.84
2018-10-15T01:00:19.516Z,100790.34
2018-10-15T01:02:48.912Z,100791.20
2018-10-15T01:05:18.305Z,100786.41
2018-10-15T01:07:47.939Z,100783.35
2018-10-15T01:10:17.309Z,100785.53
2018-10-15T01:12:46.689Z,100778.53
2018-10-15T01:15:16.076Z,100777.66
2018-10-15T01:17:45.477Z,100772.84
2018-10-15T01:20:15.152Z,100780.70
2018-10-15T01:22:44.604Z,100778.94
2018-10-15T01:25:13.989Z,100778.09
2018-10-15T01:27:43.377Z,100776.78
2018-10-15T01:30:13.255Z,100785.95
2018-10-15T01:32:42.816Z,100775.89
2018-10-15T01:35:12.204Z,100770.20
2018-10-15T01:37:41.624Z,100778.94
2018-10-15T01:40:11.017Z,100786.79
2018-10-15T01:42:40.384Z,100783.30
2018-10-15T01:45:09.812Z,100787.23
2018-10-15T01:47:39.286Z,100787.69
2018-10-15T01:50:08.690Z,100785.95
2018-10-15T01:52:38.316Z,100784.19
2018-10-15T01:55:08.428Z,100787.23
2018-10-15T01:57:37.933Z,100795.08
2018-10-15T02:00:08.496Z,100786.79
2018-10-15T02:02:38.157Z,100800.75
2018-10-15T02:05:08.604Z,100805.50
2018-10-15T02:07:38.070Z,100806.81
2018-10-15T02:10:07.884Z,100808.53
2018-10-15T02:12:37.337Z,100808.53
2018-10-15T02:15:07.152Z,100806.34
2018-10-15T02:17:36.547Z,100805.04
2018-10-15T02:20:08.047Z,100804.60
2018-10-15T02:22:37.411Z,100798.03
2018-10-15T02:25:07.015Z,100805.44
2018-10-15T02:27:36.431Z,100801.05
2018-10-15T02:30:06.742Z,100794.50
2018-10-15T02:32:36.155Z,100797.58
2018-10-15T02:35:06.062Z,100800.63
2018-10-15T02:37:35.499Z,100802.80
2018-10-15T02:40:04.938Z,100798.88
2018-10-15T02:42:34.348Z,100801.05
2018-10-15T02:45:03.791Z,100794.92
2018-10-15T02:47:33.189Z,100797.07
2018-10-15T02:50:02.602Z,100799.23
2018-10-15T02:52:32.015Z,100797.49
2018-10-15T02:55:01.400Z,100789.20
2018-10-15T02:57:37.240Z,100794.01
2018-10-15T03:00:10.517Z,100789.66
2018-10-15T03:02:39.906Z,100779.61
2018-10-15T03:05:10.716Z,100777.41
2018-10-15T03:07:40.127Z,100773.94
2018-10-15T03:10:09.588Z,100778.71
2018-10-15T03:12:38.956Z,100776.11
2018-10-15T03:15:09.945Z,100774.38
2018-10-15T03:17:39.428Z,100773.94
2018-10-15T03:20:10.397Z,100774.78
2018-10-15T03:22:40.500Z,100770.86
2018-10-15T03:25:10.705Z,100780.05
2018-10-15T03:27:40.516Z,100781.34
2018-10-15T03:30:11.105Z,100783.97
2018-10-15T03:32:41.503Z,100787.88
2018-10-15T03:35:11.646Z,100783.48
2018-10-15T03:37:41.132Z,100784.77
2018-10-15T03:40:10.548Z,100783.02
2018-10-15T03:42:39.983Z,100787.38
2018-10-15T03:45:09.413Z,100782.14
2018-10-15T03:47:38.808Z,100777.30
2018-10-15T03:50:08.420Z,100786.00
2018-10-15T03:52:37.827Z,100787.28
2018-10-15T03:55:07.232Z,100785.56
2018-10-15T03:57:36.631Z,100780.31
2018-10-15T04:00:06.680Z,100780.28
2018-10-15T04:02:36.092Z,100781.56
2018-10-15T04:05:05.570Z,100783.28
2018-10-15T04:07:35.002Z,100792.00
2018-10-15T04:10:04.620Z,100789.34
2018-10-15T04:12:34.016Z,100779.69
2018-10-15T04:15:03.468Z,100765.70
2018-10-15T04:17:32.881Z,100768.73
2018-10-15T04:20:02.319Z,100767.86
2018-10-15T04:22:36.060Z,100770.89
2018-10-15T04:25:05.532Z,100779.19
2018-10-15T04:27:34.938Z,100779.16
2018-10-15T04:30:04.338Z,100781.77
2018-10-15T04:32:33.731Z,100788.73
2018-10-15T04:35:03.155Z,100791.81
2018-10-15T04:37:32.573Z,100800.53
2018-10-15T04:40:01.979Z,100796.61
2018-10-15T04:42:31.389Z,100793.55
2018-10-15T04:45:00.952Z,100785.71
2018-10-15T04:47:30.515Z,100785.73
2018-10-15T04:49:59.991Z,100782.68
2018-10-15T04:52:29.291Z,100770.45
2018-10-15T04:54:58.691Z,100770.03
2018-10-15T04:57:28.073Z,100773.51
2018-10-15T04:59:57.535Z,100779.61
2018-10-15T05:02:26.926Z,100773.92
2018-10-15T05:04:56.349Z,100769.55
2018-10-15T05:07:25.735Z,100770.42
2018-10-15T05:09:55.302Z,100773.88
2018-10-15T05:12:24.953Z,100774.31
2018-10-15T05:14:54.636Z,100774.75
2018-10-15T05:17:24.175Z,100781.73
2018-10-15T05:19:53.922Z,100784.83
2018-10-15T05:22:23.480Z,100786.11
2018-10-15T05:24:52.981Z,100784.39
2018-10-15T05:27:22.592Z,100795.73
2018-10-15T05:29:51.997Z,100800.50
2018-10-15T05:32:21.408Z,100801.81
2018-10-15T05:34:51.071Z,100801.81
2018-10-15T05:37:20.747Z,100802.69
2018-10-15T05:39:50.406Z,100809.23
2018-10-15T05:42:19.942Z,100809.25
2018-10-15T05:44:49.268Z,100813.63
2018-10-15T05:47:25.525Z,100817.57
2018-10-15T05:49:54.924Z,100814.98
2018-10-15T05:52:24.316Z,100815.44
2018-10-15T05:54:53.974Z,100810.66
2018-10-15T05:57:23.678Z,100804.13
2018-10-15T05:59:53.353Z,100817.20
2018-10-15T06:02:23.094Z,100816.78
2018-10-15T06:04:52.525Z,100815.89
2018-10-15T06:07:21.968Z,100822.89
2018-10-15T06:09:51.376Z,100817.25
2018-10-15T06:12:20.840Z,100824.30
2018-10-15T06:14:50.164Z,100830.14
2018-10-15T06:17:19.548Z,100823.70
2018-10-15T06:19:48.967Z,100824.63
2018-10-15T06:22:18.615Z,100832.05
2018-10-15T06:24:48.248Z,100830.37
2018-10-15T06:27:18.035Z,100829.20
2018-10-15T06:29:47.579Z,100820.55
2018-10-15T06:32:23.234Z,100817.04
2018-10-15T06:34:52.597Z,100823.16
2018-10-15T06:37:22.027Z,100835.41
2018-10-15T06:39:51.403Z,100833.66
2018-10-15T06:42:20.895Z,100831.38
2018-10-15T06:44:50.316Z,100836.47
2018-10-15T06:47:19.746Z,100833.67
2018-10-15T06:49:49.129Z,100839.27
2018-10-15T06:52:18.521Z,100833.22
2018-10-15T06:54:47.936Z,100829.73
2018-10-15T06:57:17.390Z,100838.42
2018-10-15T06:59:46.720Z,100835.44
2018-10-15T07:02:16.199Z,100823.82
2018-10-15T07:04:46.073Z,100824.53
2018-10-15T07:07:15.725Z,100824.36
2018-10-15T07:09:45.180Z,100827.94
2018-10-15T07:12:14.679Z,100834.05
2018-10-15T07:14:44.149Z,100846.53
2018-10-15T07:17:13.497Z,100837.70
2018-10-15T07:19:42.867Z,100839.28
2018-10-15T07:22:12.379Z,100830.31
2018-10-15T07:24:41.694Z,100828.88
2018-10-15T07:27:11.143Z,100831.44
2018-10-15T07:29:40.517Z,100843.84
2018-10-15T07:32:09.975Z,100847.61
2018-10-15T07:34:39.304Z,100846.41
2018-10-15T07:37:08.695Z,100849.92
2018-10-15T07:39:38.173Z,100855.28
2018-10-15T07:42:07.615Z,100859.88
2018-10-15T07:44:37.015Z,100856.15
2018-10-15T07:47:07.005Z,100846.26
2018-10-15T07:49:36.406Z,100842.59
2018-10-15T07:52:06.011Z,100848.03
2018-10-15T07:54:35.420Z,100849.13
2018-10-15T07:57:04.984Z,100856.20
2018-10-15T07:59:34.376Z,100842.83
2018-10-15T08:02:03.790Z,100842.52
2018-10-15T08:04:33.186Z,100837.07
2018-10-15T08:07:02.596Z,100839.34
2018-10-15T08:09:32.032Z,100839.74
2018-10-15T08:12:01.557Z,100845.81
2018-10-15T08:14:31.022Z,100850.20
2018-10-15T08:17:00.525Z,100849.48
2018-10-15T08:19:30.189Z,100850.30
2018-10-15T08:21:59.756Z,100856.14
2018-10-15T08:24:29.360Z,100857.87
2018-10-15T08:26:59.015Z,100858.42
2018-10-15T08:29:29.015Z,100857.75
2018-10-15T08:31:58.400Z,100852.99
2018-10-15T08:34:27.824Z,100858.27
2018-10-15T08:36:57.292Z,100862.45
2018-10-15T08:39:26.692Z,100859.77
2018-10-15T08:41:56.324Z,100853.55
2018-10-15T08:44:25.745Z,100852.34
2018-10-15T08:46:55.177Z,100848.62
2018-10-15T08:49:24.578Z,100843.02
2018-10-15T08:51:54.152Z,100846.89
2018-10-15T08:54:23.653Z,100841.98
2018-10-15T08:56:53.005Z,100856.55
2018-10-15T08:59:22.405Z,100861.00
2018-10-15T09:01:53.283Z,100873.18
2018-10-15T09:04:23.085Z,100862.03
2018-10-15T09:06:52.737Z,100856.30
2018-10-15T09:09:22.460Z,100861.38
2018-10-15T09:11:51.644Z,100856.48
2018-10-15T09:14:21.049Z,100861.37
2018-10-15T09:16:50.563Z,100857.36
2018-10-15T09:19:19.978Z,100860.14
2018-10-15T09:21:49.508Z,100862.05
2018-10-15T09:24:19.367Z,100858.30
2018-10-15T09:26:48.859Z,100849.17
2018-10-15T09:29:18.155Z,100856.39
2018-10-15T09:31:47.536Z,100848.97
2018-10-15T09:34:17.082Z,100852.16
2018-10-15T09:36:46.551Z,100862.95
2018-10-15T09:39:15.956Z,100857.97
2018-10-15T09:41:45.377Z,100856.34
2018-10-15T09:44:14.806Z,100854.06
2018-10-15T09:46:44.427Z,100854.91
2018-10-15T09:49:13.799Z,100861.69
2018-10-15T09:51:43.176Z,100867.30
2018-10-15T09:54:12.570Z,100871.19
2018-10-15T09:56:41.953Z,100867.80
2018-10-15T09:59:11.412Z,100866.74
2018-10-15T10:01:46.171Z,100866.83
2018-10-15T10:04:15.749Z,100863.48
2018-10-15T10:06:45.157Z,100861.00
2018-10-15T10:09:14.516Z,100861.41
2018-10-15T10:11:43.911Z,100866.49
2018-10-15T10:14:13.312Z,100854.55
2018-10-15T10:16:42.855Z,100846.91
2018-10-15T10:19:12.225Z,100846.64
2018-10-15T10:21:41.824Z,100848.93
2018-10-15T10:24:11.184Z,100844.73
2018-10-15T10:26:40.553Z,100852.12
2018-10-15T10:29:10.030Z,100851.02
2018-10-15T10:31:39.365Z,100845.95
2018-10-15T10:34:18.151Z,100847.63
2018-10-15T10:36:58.832Z,100851.91
2018-10-15T10:39:28.164Z,100845.36
2018-10-15T10:41:57.570Z,100848.09
2018-10-15T10:44:26.947Z,100855.33
2018-10-15T10:46:56.356Z,100848.84
2018-10-15T10:49:25.727Z,100855.39
2018-10-15T10:51:55.170Z,100850.44
2018-10-15T10:54:24.583Z,100848.64
2018-10-15T10:56:53.956Z,100848.90
2018-10-15T10:59:23.455Z,100846.65
2018-10-15T11:01:52.927Z,100846.75
2018-10-15T11:04:22.319Z,100837.39
2018-10-15T11:06:51.753Z,100835.30
2018-10-15T11:09:21.180Z,100839.02
2018-10-15T11:11:50.614Z,100840.04
2018-10-15T11:14:20.008Z,100843.27
2018-10-15T11:16:49.416Z,100840.70
2018-10-15T11:19:18.815Z,100841.32
2018-10-15T11:21:48.228Z,100839.94
2018-10-15T11:24:17.748Z,100836.87
2018-10-15T11:26:47.138Z,100842.14
2018-10-15T11:29:16.705Z,100834.56
2018-10-15T11:31:46.108Z,100839.06
2018-10-15T11:34:15.686Z,100840.50
2018-10-15T11:36:45.034Z,100837.25
2018-10-15T11:39:14.456Z,100838.32
2018-10-15T11:41:43.900Z,100837.60
2018-10-15T11:44:13.540Z,100839.16
2018-10-15T11:46:42.947Z,100841.05
2018-10-15T11:49:12.364Z,100842.58
2018-10-15T11:51:41.801Z,100843.77
2018-10-15T11:54:11.291Z,100848.66
2018-10-15T11:56:40.638Z,100841.11
2018-10-15T11:59:10.091Z,100848.14
2018-10-15T12:01:39.598Z,100844.46
2018-10-15T12:04:12.077Z,100840.57
2018-10-15T12:06:42.139Z,100835.30
2018-10-15T12:09:13.704Z,100829.46
2018-10-15T12:11:43.832Z,100841.84
2018-10-15T12:14:13.258Z,100835.53
2018-10-15T12:16:42.657Z,100841.84
2018-10-15T12:19:12.040Z,100841.78
2018-10-15T12:21:41.481Z,100835.56
2018-10-15T12:24:11.055Z,100834.77
2018-10-15T12:26:40.460Z,100837.81
2018-10-15T12:29:10.296Z,100838.64
2018-10-15T12:31:39.757Z,100848.22
2018-10-15T12:34:09.179Z,100845.99
2018-10-15T12:36:38.774Z,100844.47
2018-10-15T12:39:10.260Z,100841.77
2018-10-15T12:41:40.040Z,100842.42
2018-10-15T12:44:09.569Z,100839.59
2018-10-15T12:46:38.988Z,100844.70
2018-10-15T12:49:08.715Z,100840.20
2018-10-15T12:51:38.217Z,100842.21
2018-10-15T12:54:07.721Z,100841.55
2018-10-15T12:56:37.253Z,100844.63
2018-10-15T12:59:06.839Z,100843.34
2018-10-15T13:01:36.391Z,100848.90
2018-10-15T13:04:06.387Z,100854.17
2018-10-15T13:06:36.055Z,100855.74
2018-10-15T13:09:08.524Z,100850.23
2018-10-15T13:11:39.167Z,100846.95
2018-10-15T13:14:08.676Z,100844.92
2018-10-15T13:16:38.130Z,100839.34
2018-10-15T13:19:07.738Z,100835.78
2018-10-15T13:21:37.393Z,100834.13
2018-10-15T13:24:06.826Z,100827.74
2018-10-15T13:26:36.279Z,100835.00
2018-10-15T13:29:05.662Z,100839.94
2018-10-15T13:31:35.417Z,100843.05
2018-10-15T13:34:05.497Z,100835.09
2018-10-15T13:36:35.234Z,100825.79
2018-10-15T13:39:06.259Z,100828.81
2018-10-15T13:41:35.932Z,100830.97
2018-10-15T13:44:05.968Z,100837.57
2018-10-15T13:46:42.306Z,100822.55
2018-10-15T13:49:11.947Z,100828.73
2018-10-15T13:51:41.787Z,100828.77
2018-10-15T13:54:11.491Z,100830.64
2018-10-15T13:56:41.189Z,100828.11
2018-10-15T13:59:10.809Z,100822.96
2018-10-15T14:01:40.480Z,100818.20
2018-10-15T14:04:10.141Z,100816.08
2018-10-15T14:06:39.819Z,100832.97
2018-10-15T14:09:11.058Z,100830.89
2018-10-15T14:11:40.973Z,100837.11
2018-10-15T14:14:10.742Z,100830.97
2018-10-15T14:16:40.498Z,100826.11
2018-10-15T14:19:10.135Z,100835.91
2018-10-15T14:21:39.766Z,100825.82
2018-10-15T14:24:09.415Z,100829.47
2018-10-15T14:26:39.097Z,100824.27
2018-10-15T14:29:08.873Z,100826.59
2018-10-15T14:31:38.609Z,100822.69
2018-10-15T14:34:08.812Z,100827.16
2018-10-15T14:36:38.492Z,100832.97
2018-10-15T14:39:10.768Z,100831.78
2018-10-15T14:41:40.987Z,100830.95
2018-10-15T14:44:10.668Z,100830.08
2018-10-15T14:46:40.348Z,100834.10
2018-10-15T14:49:10.148Z,100831.03
2018-10-15T14:51:39.782Z,100835.50
2018-10-15T14:54:10.165Z,100833.38
2018-10-15T14:56:39.860Z,100839.29
2018-10-15T14:59:09.488Z,100835.88
2018-10-15T15:01:39.114Z,100831.21
2018-10-15T15:04:08.715Z,100841.97
2018-10-15T15:06:38.364Z,100850.03
2018-10-15T15:09:09.887Z,100841.31
2018-10-15T15:11:56.431Z,100839.74
2018-10-15T15:14:26.081Z,100842.64
2018-10-15T15:16:55.743Z,100829.59
2018-10-15T15:19:25.372Z,100843.98
2018-10-15T15:21:54.879Z,100834.10
2018-10-15T15:24:24.443Z,100834.81
2018-10-15T15:26:53.854Z,100830.19
2018-10-15T15:29:23.415Z,100837.88
2018-10-15T15:31:53.021Z,100845.97
2018-10-15T15:34:22.698Z,100839.14
2018-10-15T15:36:52.300Z,100851.69
2018-10-15T15:39:21.962Z,100853.66
2018-10-15T15:41:51.665Z,100852.51
2018-10-15T15:44:21.064Z,100860.22
2018-10-15T15:46:52.327Z,100857.68
2018-10-15T15:49:21.716Z,100863.58
2018-10-15T15:51:51.088Z,100861.99
2018-10-15T15:54:20.615Z,100868.34
2018-10-15T15:56:50.007Z,100873.28
2018-10-15T15:59:19.413Z,100866.85
2018-10-15T16:01:48.896Z,100864.80
2018-10-15T16:04:18.280Z,100867.56
2018-10-15T16:06:47.679Z,100869.45
2018-10-15T16:09:22.562Z,100865.62
2018-10-15T16:11:52.266Z,100863.55
2018-10-15T16:14:22.543Z,100872.85
2018-10-15T16:16:52.335Z,100879.52
2018-10-15T16:19:21.897Z,100865.55
2018-10-15T16:21:51.168Z,100869.16
2018-10-15T16:24:20.670Z,100867.53
2018-10-15T16:26:50.219Z,100868.45
2018-10-15T16:29:20.202Z,100868.10
2018-10-15T16:31:49.772Z,100870.83
2018-10-15T16:34:19.200Z,100874.86
2018-10-15T16:36:48.604Z,100876.20
2018-10-15T16:39:18.128Z,100878.91
2018-10-15T16:41:47.568Z,100881.13
2018-10-15T16:44:16.954Z,100867.92
2018-10-15T16:46:46.396Z,100875.88
2018-10-15T16:49:15.811Z,100877.66
2018-10-15T16:51:45.306Z,100871.52
2018-10-15T16:54:14.870Z,100874.26
2018-10-15T16:56:44.310Z,100876.05
2018-10-15T16:59:13.798Z,100882.27
2018-10-15T17:01:43.147Z,100887.58
2018-10-15T17:04:12.604Z,100887.20
2018-10-15T17:06:42.034Z,100895.59
2018-10-15T17:09:15.365Z,100892.64
2018-10-15T17:11:45.574Z,100896.23
2018-10-15T17:14:15.180Z,100901.98
2018-10-15T17:16:44.584Z,100902.48
2018-10-15T17:19:14.208Z,100911.28
2018-10-15T17:21:43.638Z,100912.17
2018-10-15T17:24:13.094Z,100917.91
2018-10-15T17:26:42.520Z,100913.98
2018-10-15T17:29:11.949Z,100910.09
2018-10-15T17:31:41.384Z,100908.37
2018-10-15T17:34:10.784Z,100909.72
2018-10-15T17:36:40.181Z,100911.55
2018-10-15T17:39:11.445Z,100923.88
2018-10-15T17:41:41.160Z,100923.45
2018-10-15T17:44:10.629Z,100921.34
2018-10-15T17:46:40.059Z,100925.33
2018-10-15T17:49:09.473Z,100922.76
2018-10-15T17:51:38.917Z,100917.52
2018-10-15T17:54:08.359Z,100917.53
2018-10-15T17:56:37.782Z,100915.36
2018-10-15T17:59:07.226Z,100917.16
2018-10-15T18:01:36.804Z,100915.41
2018-10-15T18:04:06.520Z,100911.47
2018-10-15T18:06:35.865Z,100923.31
2018-10-15T18:09:08.322Z,100919.31
2018-10-15T18:11:37.784Z,100911.83
2018-10-15T18:14:07.314Z,100920.61
2018-10-15T18:16:36.723Z,100921.91
2018-10-15T18:19:06.178Z,100912.25
2018-10-15T18:21:35.571Z,100915.77
2018-10-15T18:24:05.540Z,100919.72
2018-10-15T18:26:35.296Z,100921.04
2018-10-15T18:29:05.297Z,100925.44
2018-10-15T18:31:35.567Z,100927.63
2018-10-15T18:34:05.388Z,100935.10
2018-10-15T18:36:35.195Z,100935.12
2018-10-15T18:39:06.869Z,100928.17
2018-10-15T18:41:36.629Z,100928.67
2018-10-15T18:44:06.866Z,100933.52
2018-10-15T18:46:36.524Z,100933.98
2018-10-15T18:49:06.704Z,100928.33
2018-10-15T18:51:36.391Z,100933.61
2018-10-15T18:54:06.514Z,100926.16
2018-10-15T18:56:36.164Z,100926.61
2018-10-15T18:59:06.533Z,100925.78
2018-10-15T19:01:36.215Z,100924.47
2018-10-15T19:04:06.113Z,100920.11
2018-10-15T19:06:35.838Z,100914.89
2018-10-15T19:09:08.054Z,100916.18
2018-10-15T19:11:37.687Z,100920.56
2018-10-15T19:14:07.842Z,100914.00
2018-10-15T19:16:37.843Z,100913.12
2018-10-15T19:19:08.508Z,100918.39
2018-10-15T19:21:38.130Z,100920.19
2018-10-15T19:24:07.758Z,100920.20
2018-10-15T19:26:37.410Z,100931.16
2018-10-15T19:29:07.048Z,100934.70
2018-10-15T19:31:36.920Z,100927.26
2018-10-15T19:34:07.052Z,100939.97
2018-10-15T19:36:36.699Z,100937.78
2018-10-15T19:39:11.501Z,100934.72
2018-10-15T19:41:41.544Z,100928.58
2018-10-15T19:44:11.736Z,100918.53
2018-10-15T19:46:41.440Z,100926.42
2018-10-15T19:49:11.062Z,100930.38
2018-10-15T19:51:40.770Z,100937.82
2018-10-15T19:54:10.395Z,100940.05
2018-10-15T19:56:40.037Z,100951.00
2018-10-15T19:59:09.730Z,100955.81
2018-10-15T20:01:39.638Z,100964.14
2018-10-15T20:04:09.283Z,100959.76
2018-10-15T20:06:39.015Z,100955.81
2018-10-15T20:09:13.210Z,100949.68
2018-10-15T20:11:43.354Z,100952.31
2018-10-15T20:14:12.978Z,100960.19
2018-10-15T20:16:42.598Z,100955.84
2018-10-15T20:19:12.113Z,100947.95
2018-10-15T20:21:41.531Z,100950.57
2018-10-15T20:24:11.023Z,100953.66
2018-10-15T20:26:40.440Z,100952.34
2018-10-15T20:29:09.899Z,100946.65
2018-10-15T20:31:39.320Z,100959.34
2018-10-15T20:34:08.871Z,100952.33
2018-10-15T20:36:38.286Z,100946.22
2018-10-15T20:39:10.777Z,100951.47
2018-10-15T20:41:40.227Z,100952.33
2018-10-15T20:44:11.252Z,100949.70
2018-10-15T20:46:40.889Z,100948.83
2018-10-15T20:49:10.843Z,100956.27
2018-10-15T20:51:40.274Z,100954.52
2018-10-15T20:54:09.919Z,100953.64
2018-10-15T20:56:39.375Z,100954.08
2018-10-15T20:59:08.845Z,100951.45
2018-10-15T21:01:38.305Z,100948.80
2018-10-15T21:04:07.820Z,100953.61
2018-10-15T21:06:37.243Z,100953.61
2018-10-15T21:09:11.077Z,100953.60
2018-10-15T21:11:40.512Z,100953.16
2018-10-15T21:14:11.050Z,100950.96
2018-10-15T21:16:40.419Z,100952.73
2018-10-15T21:19:09.876Z,100948.34
2018-10-15T21:21:39.294Z,100950.97
2018-10-15T21:24:08.733Z,100950.52
2018-10-15T21:26:38.510Z,100954.89
2018-10-15T21:29:08.003Z,100956.65
2018-10-15T21:31:45.253Z,100961.02
2018-10-15T21:34:14.676Z,100957.50
2018-10-15T21:36:44.146Z,100956.19
2018-10-15T21:39:13.593Z,100950.94
2018-10-15T21:41:43.049Z,100949.20
2018-10-15T21:44:12.478Z,100946.59
2018-10-15T21:46:41.922Z,100941.78
2018-10-15T21:49:11.422Z,100945.72
2018-10-15T21:51:40.911Z,100944.84
2018-10-15T21:54:10.407Z,100942.20
2018-10-15T21:56:39.980Z,100941.77
2018-10-15T21:59:09.448Z,100941.31
2018-10-15T22:01:38.884Z,100941.78
2018-10-15T22:04:08.716Z,100938.27
2018-10-15T22:06:38.167Z,100941.33
2018-10-15T22:09:09.764Z,100937.38
2018-10-15T22:11:39.543Z,100934.32
2018-10-15T22:14:09.949Z,100936.06
2018-10-15T22:16:39.783Z,100935.62
2018-10-15T22:19:09.151Z,100936.93
2018-10-15T22:21:39.201Z,100935.59
2018-10-15T22:24:09.287Z,100945.68
2018-10-15T22:26:39.615Z,100938.67
2018-10-15T22:29:09.742Z,100939.96
2018-10-15T22:31:39.620Z,100943.44
2018-10-15T22:34:10.084Z,100944.32
2018-10-15T22:36:39.708Z,100942.54
2018-10-15T22:39:12.685Z,100948.21
2018-10-15T22:41:42.723Z,100938.98
2018-10-15T22:44:12.143Z,100937.67
2018-10-15T22:46:41.623Z,100936.77
2018-10-15T22:49:11.029Z,100933.67
2018-10-15T22:51:40.583Z,100933.23
2018-10-15T22:54:10.066Z,100928.84
2018-10-15T22:56:39.497Z,100927.94
2018-10-15T22:59:08.912Z,100926.16
2018-10-15T23:01:38.358Z,100926.61
2018-10-15T23:04:07.797Z,100930.95
2018-10-15T23:06:37.228Z,100935.77
2018-10-15T23:09:09.074Z,100938.41
2018-10-15T23:11:38.694Z,100941.03
2018-10-15T23:14:08.581Z,100940.59
2018-10-15T23:16:38.316Z,100936.20
2018-10-15T23:19:08.268Z,100936.64
2018-10-15T23:21:37.688Z,100935.34
2018-10-15T23:24:07.123Z,100936.19
2018-10-15T23:26:36.619Z,100931.77
2018-10-15T23:29:06.635Z,100937.45
2018-10-15T23:31:36.059Z,100935.68
2018-10-15T23:34:05.548Z,100945.70
2018-10-15T23:36:34.973Z,100947.88
2018-10-15T23:39:06.101Z,100946.15
2018-10-15T23:41:35.502Z,100944.80
2018-10-15T23:44:05.112Z,100947.38
2018-10-15T23:46:34.505Z,100940.36
2018-10-15T23:49:03.942Z,100945.61
2018-10-15T23:51:33.476Z,100939.43
2018-10-15T23:54:02.912Z,100946.40
2018-10-15T23:56:32.366Z,100949.88
2018-10-15T23:59:01.796Z,100948.13
